createdAt,value
2023-01-27T00:02:03.698Z,14.50
2023-01-27T00:04:36.987Z,14.95
2023-01-27T00:07:10.287Z,14.25
2023-01-27T00:09:44.131Z,13.82
2023-01-27T00:15:14.655Z,14.70
2023-01-27T00:17:48.041Z,15.30
2023-01-27T00:20:42.924Z,14.65
2023-01-27T00:23:36.097Z,13.75
2023-01-27T00:26:11.860Z,14.93
2023-01-27T00:28:48.992Z,14.90
2023-01-27T00:31:41.300Z,15.82
2023-01-27T00:34:14.874Z,13.80
2023-01-27T00:36:48.231Z,15.27
2023-01-27T00:39:21.587Z,15.90
2023-01-27T00:41:55.278Z,14.48
2023-01-27T00:47:04.466Z,15.23
2023-01-27T00:49:37.942Z,15.35
2023-01-27T00:52:11.314Z,15.10
2023-01-27T00:54:44.621Z,14.35
2023-01-27T00:57:17.962Z,15.00
2023-01-27T00:59:51.266Z,13.80
2023-01-27T01:02:26.359Z,14.25
2023-01-27T01:04:59.676Z,14.27
2023-01-27T01:07:32.975Z,14.48
2023-01-27T01:10:07.184Z,14.75
2023-01-27T01:12:40.916Z,13.90
2023-01-27T01:15:14.285Z,15.50
2023-01-27T01:17:48.980Z,15.05
2023-01-27T01:20:22.352Z,14.48
2023-01-27T01:22:55.743Z,15.57
2023-01-27T01:25:29.118Z,14.05
2023-01-27T01:28:03.991Z,13.35
2023-01-27T01:30:38.530Z,14.32
2023-01-27T01:33:13.826Z,14.65
2023-01-27T01:35:47.216Z,12.95
2023-01-27T01:38:20.534Z,15.48
2023-01-27T01:40:53.841Z,14.40
2023-01-27T01:43:28.024Z,13.68
2023-01-27T01:46:02.988Z,15.38
2023-01-27T01:48:40.966Z,13.70
2023-01-27T01:51:19.192Z,13.38
2023-01-27T01:53:57.569Z,14.75
2023-01-27T01:56:35.545Z,14.00
2023-01-27T01:59:17.873Z,15.23
2023-01-27T02:01:52.789Z,13.73
2023-01-27T02:04:32.760Z,16.17
2023-01-27T02:07:11.061Z,14.20
2023-01-27T02:09:44.635Z,14.43
2023-01-27T02:12:17.964Z,16.30
2023-01-27T02:14:51.331Z,15.55
2023-01-27T02:17:24.817Z,14.77
2023-01-27T02:20:06.560Z,14.80
2023-01-27T02:22:48.235Z,13.38
2023-01-27T02:25:33.575Z,14.27
2023-01-27T02:28:09.891Z,14.90
2023-01-27T02:30:43.373Z,13.75
2023-01-27T02:33:17.336Z,15.82
2023-01-27T02:35:59.070Z,14.82
2023-01-27T02:38:36.207Z,14.73
2023-01-27T02:41:13.069Z,13.30
2023-01-27T02:43:48.997Z,15.63
2023-01-27T02:46:22.768Z,14.23
2023-01-27T02:51:29.520Z,13.98
2023-01-27T02:54:03.245Z,14.52
2023-01-27T02:56:36.608Z,14.90
2023-01-27T02:59:11.302Z,13.50
2023-01-27T03:01:48.129Z,15.43
2023-01-27T03:04:21.543Z,14.65
2023-01-27T03:06:55.276Z,14.30
2023-01-27T03:12:19.167Z,14.32
2023-01-27T03:15:11.950Z,14.93
2023-01-27T03:18:03.764Z,14.48
2023-01-27T03:20:37.153Z,13.98
2023-01-27T03:23:11.391Z,15.80
2023-01-27T03:25:46.848Z,14.43
2023-01-27T03:28:20.483Z,15.57
2023-01-27T03:31:20.404Z,15.57
2023-01-27T03:34:07.757Z,15.55
2023-01-27T03:37:08.392Z,13.90
2023-01-27T03:39:59.484Z,14.73
2023-01-27T03:42:50.002Z,15.32
2023-01-27T03:45:40.540Z,14.90
2023-01-27T03:48:18.448Z,16.50
2023-01-27T03:50:54.079Z,14.40
2023-01-27T03:53:27.468Z,15.13
2023-01-27T03:56:00.915Z,15.00
2023-01-27T03:58:36.263Z,13.95
2023-01-27T04:01:14.910Z,15.00
2023-01-27T04:04:07.862Z,14.73
2023-01-27T04:06:55.296Z,14.10
2023-01-27T04:09:32.555Z,15.82
2023-01-27T04:12:06.468Z,14.60
2023-01-27T04:14:42.166Z,14.70
2023-01-27T04:17:17.132Z,13.88
2023-01-27T04:19:52.566Z,15.65
2023-01-27T04:22:25.907Z,15.15
2023-01-27T04:24:59.203Z,13.55
2023-01-27T04:27:32.479Z,15.23
2023-01-27T04:30:06.944Z,13.43
2023-01-27T04:32:40.254Z,16.08
2023-01-27T04:35:15.244Z,14.07
2023-01-27T04:37:48.744Z,14.20
2023-01-27T04:40:22.036Z,14.32
2023-01-27T04:42:55.508Z,15.07
2023-01-27T04:45:28.862Z,15.27
2023-01-27T04:48:02.614Z,15.02
2023-01-27T04:50:37.288Z,16.35
2023-01-27T04:53:10.787Z,14.50
2023-01-27T04:55:48.529Z,14.80
2023-01-27T04:58:21.829Z,15.02
2023-01-27T05:00:55.154Z,14.57
2023-01-27T05:03:28.418Z,14.93
2023-01-27T05:06:04.749Z,14.73
2023-01-27T05:08:38.042Z,15.13
2023-01-27T05:11:12.290Z,14.30
2023-01-27T05:13:46.178Z,14.65
2023-01-27T05:18:54.197Z,14.07
2023-01-27T05:21:29.070Z,13.35
2023-01-27T05:24:03.497Z,15.00
2023-01-27T05:26:36.855Z,14.75
2023-01-27T05:29:10.577Z,16.27
2023-01-27T05:31:43.904Z,14.63
2023-01-27T05:34:17.809Z,14.20
2023-01-27T05:36:52.659Z,14.57
2023-01-27T05:39:25.957Z,16.13
2023-01-27T05:41:59.307Z,14.95
2023-01-27T05:44:32.630Z,15.40
2023-01-27T05:47:07.344Z,15.15
2023-01-27T05:49:40.643Z,15.70
2023-01-27T05:52:15.340Z,15.50
2023-01-27T05:54:48.640Z,14.80
2023-01-27T05:57:21.961Z,15.90
2023-01-27T05:59:55.299Z,14.05
2023-01-27T06:02:28.614Z,14.60
2023-01-27T06:05:01.938Z,14.90
2023-01-27T06:07:36.644Z,14.55
2023-01-27T06:10:11.544Z,16.13
2023-01-27T06:12:44.847Z,15.40
2023-01-27T06:15:18.192Z,16.15
2023-01-27T06:17:52.848Z,15.02
2023-01-27T06:20:26.588Z,15.63
2023-01-27T06:23:01.781Z,15.48
2023-01-27T06:25:39.221Z,15.70
2023-01-27T06:28:27.801Z,15.95
2023-01-27T06:31:07.147Z,13.95
2023-01-27T06:33:41.062Z,15.88
2023-01-27T06:36:17.784Z,16.52
2023-01-27T06:38:52.722Z,14.57
2023-01-27T06:41:26.260Z,15.50
2023-01-27T06:43:59.554Z,14.93
2023-01-27T06:46:32.904Z,16.08
2023-01-27T06:49:06.314Z,15.30
2023-01-27T06:51:39.689Z,15.52
2023-01-27T06:54:14.579Z,15.90
2023-01-27T06:56:48.191Z,15.57
2023-01-27T06:59:21.553Z,14.68
2023-01-27T07:01:54.805Z,15.60
2023-01-27T07:04:29.720Z,15.75
2023-01-27T07:07:03.594Z,15.20
2023-01-27T07:09:51.680Z,14.45
2023-01-27T07:12:25.807Z,15.02
2023-01-27T07:14:59.127Z,15.18
2023-01-27T07:17:32.450Z,16.70
2023-01-27T07:20:07.961Z,14.88
2023-01-27T07:22:41.307Z,16.60
2023-01-27T07:25:16.241Z,16.17
2023-01-27T07:27:49.610Z,17.10
2023-01-27T07:30:23.168Z,14.63
2023-01-27T07:32:56.546Z,15.00
2023-01-27T07:35:29.800Z,16.05
2023-01-27T07:38:03.185Z,14.00
2023-01-27T07:40:37.887Z,14.82
2023-01-27T07:43:11.429Z,16.00
2023-01-27T07:45:49.003Z,17.77
2023-01-27T07:48:22.385Z,14.77
2023-01-27T07:50:55.665Z,16.30
2023-01-27T07:53:28.960Z,15.70
2023-01-27T07:56:03.660Z,14.93
2023-01-27T07:58:38.272Z,15.27
2023-01-27T08:01:13.496Z,15.32
2023-01-27T08:03:46.820Z,15.38
2023-01-27T08:06:20.147Z,14.77
2023-01-27T08:08:53.438Z,15.20
2023-01-27T08:11:28.143Z,15.48
2023-01-27T08:14:01.508Z,15.20
2023-01-27T08:16:34.851Z,14.60
2023-01-27T08:19:08.214Z,16.08
2023-01-27T08:21:41.520Z,14.93
2023-01-27T08:24:14.982Z,15.07
2023-01-27T08:26:49.701Z,14.70
2023-01-27T08:29:22.982Z,16.15
2023-01-27T08:31:56.341Z,17.52
2023-01-27T08:34:29.912Z,15.25
2023-01-27T08:37:03.257Z,16.88
2023-01-27T08:39:36.760Z,17.15
2023-01-27T08:42:11.513Z,15.23
2023-01-27T08:44:44.817Z,15.80
2023-01-27T08:47:18.124Z,15.13
2023-01-27T08:49:51.562Z,16.15
2023-01-27T08:52:25.350Z,14.65
2023-01-27T08:54:59.011Z,17.20
2023-01-27T08:57:35.847Z,17.70
2023-01-27T09:00:12.980Z,16.13
2023-01-27T09:02:47.048Z,15.32
2023-01-27T09:05:22.301Z,15.77
2023-01-27T09:07:55.630Z,16.38
2023-01-27T09:10:28.984Z,16.75
2023-01-27T09:13:03.632Z,16.73
2023-01-27T09:15:37.619Z,16.00
2023-01-27T09:18:11.631Z,16.90
2023-01-27T09:20:44.930Z,14.90
2023-01-27T09:23:18.246Z,16.75
2023-01-27T09:25:51.564Z,15.02
2023-01-27T09:28:26.383Z,14.70
2023-01-27T09:31:00.516Z,18.65
2023-01-27T09:33:33.844Z,16.20
2023-01-27T09:36:11.785Z,16.02
2023-01-27T09:38:48.911Z,15.32
2023-01-27T09:41:52.356Z,15.82
2023-01-27T09:44:52.162Z,14.90
2023-01-27T09:47:35.902Z,15.13
2023-01-27T09:50:29.149Z,16.67
2023-01-27T09:53:41.454Z,15.05
2023-01-27T09:56:20.767Z,14.20
2023-01-27T09:59:06.387Z,15.85
2023-01-27T10:01:51.670Z,17.35
2023-01-27T10:04:39.807Z,16.25
2023-01-27T10:07:38.347Z,16.85
2023-01-27T10:10:25.943Z,14.90
2023-01-27T10:13:26.887Z,16.10
2023-01-27T10:16:19.479Z,15.90
2023-01-27T10:19:19.272Z,15.32
2023-01-27T10:22:02.134Z,16.58
2023-01-27T10:24:48.929Z,15.77
2023-01-27T10:27:24.343Z,15.73
2023-01-27T10:30:00.943Z,14.82
2023-01-27T10:32:43.773Z,15.63
2023-01-27T10:35:21.322Z,14.30
2023-01-27T10:38:05.601Z,14.95
2023-01-27T10:40:46.331Z,15.32
2023-01-27T10:43:28.584Z,14.55
2023-01-27T10:46:10.467Z,15.73
2023-01-27T10:48:48.087Z,15.07
2023-01-27T10:51:27.312Z,15.95
2023-01-27T10:54:05.713Z,15.93
2023-01-27T10:56:45.307Z,15.93
2023-01-27T10:59:24.718Z,15.15
2023-01-27T11:02:04.366Z,15.18
2023-01-27T11:04:41.193Z,13.02
2023-01-27T11:07:20.413Z,14.85
2023-01-27T11:09:59.233Z,15.38
2023-01-27T11:12:36.269Z,16.08
2023-01-27T11:15:18.778Z,15.57
2023-01-27T11:17:57.449Z,14.10
2023-01-27T11:20:35.206Z,14.00
2023-01-27T11:23:18.615Z,12.57
2023-01-27T11:25:58.498Z,16.35
2023-01-27T11:28:41.762Z,14.15
2023-01-27T11:31:29.550Z,15.20
2023-01-27T11:34:08.588Z,14.25
2023-01-27T11:36:41.961Z,16.52
2023-01-27T11:39:18.122Z,15.02
2023-01-27T11:41:55.698Z,15.80
2023-01-27T11:44:33.178Z,15.35
2023-01-27T11:47:09.128Z,15.13
2023-01-27T11:49:45.246Z,15.15
2023-01-27T11:52:21.221Z,13.18
2023-01-27T11:55:01.019Z,14.57
2023-01-27T11:57:35.185Z,14.88
2023-01-27T12:00:18.455Z,14.10
2023-01-27T12:02:56.355Z,12.77
2023-01-27T12:05:32.936Z,14.02
2023-01-27T12:08:07.039Z,14.45
2023-01-27T12:10:43.234Z,14.57
2023-01-27T12:13:18.757Z,15.13
2023-01-27T12:15:56.926Z,14.43
2023-01-27T12:18:34.326Z,14.43
2023-01-27T12:21:10.425Z,14.15
2023-01-27T12:23:50.960Z,13.75
2023-01-27T12:26:37.758Z,14.63
2023-01-27T12:29:19.741Z,13.98
2023-01-27T12:31:55.505Z,13.10
2023-01-27T12:34:36.112Z,14.02
2023-01-27T12:37:20.173Z,13.60
2023-01-27T12:42:43.246Z,14.02
2023-01-27T12:45:23.450Z,12.60
2023-01-27T12:48:03.054Z,13.80
2023-01-27T12:50:38.194Z,12.45
2023-01-27T12:53:14.279Z,14.20
2023-01-27T12:55:52.163Z,12.95
2023-01-27T12:58:33.920Z,13.50
2023-01-27T13:01:24.476Z,13.82
2023-01-27T13:04:01.020Z,13.57
2023-01-27T13:06:43.355Z,13.95
2023-01-27T13:09:26.816Z,13.10
2023-01-27T13:12:03.738Z,15.27
2023-01-27T13:14:43.278Z,13.55
2023-01-27T13:17:31.326Z,12.48
2023-01-27T13:20:16.179Z,13.70
2023-01-27T13:22:54.386Z,13.15
2023-01-27T13:25:33.951Z,13.48
2023-01-27T13:28:09.739Z,12.98
2023-01-27T13:30:51.407Z,12.73
2023-01-27T13:33:32.672Z,13.82
2023-01-27T13:36:09.764Z,13.77
2023-01-27T13:38:53.661Z,12.70
2023-01-27T13:41:34.691Z,13.95
2023-01-27T13:44:18.488Z,12.52
2023-01-27T13:46:56.229Z,11.50
2023-01-27T13:49:37.015Z,12.27
2023-01-27T13:52:13.212Z,12.70
2023-01-27T13:54:46.584Z,13.77
2023-01-27T13:57:39.750Z,12.55
2023-01-27T14:00:21.665Z,12.68
2023-01-27T14:03:27.732Z,14.65
2023-01-27T14:06:20.117Z,12.95
2023-01-27T14:09:16.848Z,11.27
2023-01-27T14:11:56.648Z,12.32
2023-01-27T14:14:56.115Z,13.73
2023-01-27T14:17:44.705Z,11.60
2023-01-27T14:20:29.460Z,12.82
2023-01-27T14:23:17.622Z,13.63
2023-01-27T14:26:00.534Z,13.15
2023-01-27T14:28:43.174Z,13.50
2023-01-27T14:31:20.635Z,12.63
2023-01-27T14:34:04.779Z,13.48
2023-01-27T14:39:24.878Z,12.13
2023-01-27T14:42:05.370Z,12.35
2023-01-27T14:44:55.834Z,12.75
2023-01-27T14:47:48.879Z,12.02
2023-01-27T14:50:31.985Z,12.35
2023-01-27T14:53:20.616Z,12.13
2023-01-27T14:56:02.641Z,14.80
2023-01-27T14:58:54.580Z,12.73
2023-01-27T15:01:39.505Z,12.55
2023-01-27T15:04:35.813Z,13.35
2023-01-27T15:07:17.085Z,14.13
2023-01-27T15:10:09.065Z,14.48
2023-01-27T15:13:18.556Z,14.15
2023-01-27T15:16:16.053Z,13.27
2023-01-27T15:19:11.990Z,11.77
2023-01-27T15:22:27.205Z,13.85
2023-01-27T15:27:37.710Z,12.70
2023-01-27T15:30:23.896Z,11.93
2023-01-27T15:32:58.987Z,12.60
2023-01-27T15:35:36.226Z,13.98
2023-01-27T15:38:33.763Z,13.10
2023-01-27T15:41:12.187Z,12.77
2023-01-27T15:44:15.435Z,13.32
2023-01-27T15:46:50.804Z,12.93
2023-01-27T15:49:29.141Z,12.85
2023-01-27T15:52:12.107Z,11.98
2023-01-27T15:54:52.040Z,15.05
2023-01-27T15:57:32.764Z,13.38
2023-01-27T16:00:08.845Z,14.65
2023-01-27T16:02:48.073Z,13.77
2023-01-27T16:05:27.872Z,14.27
2023-01-27T16:08:03.141Z,12.27
2023-01-27T16:10:37.421Z,13.35
2023-01-27T16:13:24.145Z,13.73
2023-01-27T16:16:33.822Z,14.38
2023-01-27T16:19:20.622Z,13.45
2023-01-27T16:21:59.431Z,14.00
2023-01-27T16:24:40.680Z,14.48
2023-01-27T16:27:26.510Z,14.13
2023-01-27T16:30:07.591Z,14.68
2023-01-27T16:32:47.611Z,14.23
2023-01-27T16:35:22.943Z,13.68
2023-01-27T16:38:05.868Z,12.55
2023-01-27T16:40:39.931Z,13.05
2023-01-27T16:43:19.415Z,13.25
2023-01-27T16:45:55.859Z,13.75
2023-01-27T16:48:35.374Z,13.18
2023-01-27T16:51:14.979Z,14.43
2023-01-27T16:53:51.597Z,13.02
2023-01-27T16:56:27.819Z,13.48
2023-01-27T16:59:03.764Z,13.05
2023-01-27T17:01:42.273Z,13.32
2023-01-27T17:04:20.679Z,14.82
2023-01-27T17:06:58.186Z,13.43
2023-01-27T17:09:35.384Z,13.50
2023-01-27T17:12:28.229Z,12.98
2023-01-27T17:15:10.460Z,12.77
2023-01-27T17:17:44.382Z,12.63
2023-01-27T17:20:27.398Z,14.80
2023-01-27T17:23:03.942Z,13.60
2023-01-27T17:25:40.747Z,13.35
2023-01-27T17:28:20.548Z,14.05
2023-01-27T17:31:06.234Z,14.23
2023-01-27T17:33:40.912Z,13.23
2023-01-27T17:36:14.674Z,13.48
2023-01-27T17:41:36.480Z,14.52
2023-01-27T17:44:19.717Z,14.68
2023-01-27T17:46:53.873Z,12.40
2023-01-27T17:49:28.392Z,15.30
2023-01-27T17:52:02.329Z,12.90
2023-01-27T17:54:38.781Z,13.88
2023-01-27T17:57:21.532Z,13.63
2023-01-27T18:00:01.758Z,12.05
2023-01-27T18:02:37.831Z,13.52
2023-01-27T18:05:18.236Z,13.40
2023-01-27T18:07:52.112Z,13.73
2023-01-27T18:13:13.933Z,14.23
2023-01-27T18:15:50.927Z,13.80
2023-01-27T18:18:26.267Z,12.77
2023-01-27T18:21:14.040Z,12.82
2023-01-27T18:23:52.777Z,13.63
2023-01-27T18:26:28.391Z,14.35
2023-01-27T18:29:06.036Z,13.90
2023-01-27T18:31:48.219Z,14.25
2023-01-27T18:34:32.798Z,14.30
2023-01-27T18:37:22.094Z,12.88
2023-01-27T18:39:55.858Z,14.00
2023-01-27T18:42:31.031Z,14.88
2023-01-27T18:45:06.578Z,13.30
2023-01-27T18:47:40.173Z,14.27
2023-01-27T18:50:16.011Z,13.70
2023-01-27T18:52:50.125Z,13.80
2023-01-27T18:55:24.897Z,13.50
2023-01-27T18:57:59.540Z,13.75
2023-01-27T19:00:38.862Z,14.00
2023-01-27T19:03:15.817Z,14.65
2023-01-27T19:05:50.360Z,14.15
2023-01-27T19:08:25.261Z,14.85
2023-01-27T19:10:58.594Z,14.52
2023-01-27T19:13:34.651Z,13.32
2023-01-27T19:16:14.703Z,13.88
2023-01-27T19:18:48.091Z,13.70
2023-01-27T19:21:21.430Z,14.40
2023-01-27T19:23:54.868Z,13.18
2023-01-27T19:26:29.833Z,14.52
2023-01-27T19:29:03.561Z,12.82
2023-01-27T19:31:38.259Z,12.82
2023-01-27T19:34:12.300Z,12.75
2023-01-27T19:36:46.675Z,13.30
2023-01-27T19:39:20.981Z,13.20
2023-01-27T19:41:54.338Z,14.52
2023-01-27T19:44:28.131Z,13.23
2023-01-27T19:47:02.839Z,14.18
2023-01-27T19:49:36.129Z,13.63
2023-01-27T19:52:10.054Z,13.00
2023-01-27T19:54:43.551Z,13.23
2023-01-27T19:57:18.846Z,14.70
2023-01-27T19:59:52.352Z,13.85
2023-01-27T20:05:01.027Z,13.48
2023-01-27T20:07:34.580Z,13.32
2023-01-27T20:10:12.223Z,12.63
2023-01-27T20:12:46.269Z,13.05
2023-01-27T20:15:22.705Z,13.68
2023-01-27T20:17:57.768Z,13.45
2023-01-27T20:20:31.571Z,14.48
2023-01-27T20:23:05.601Z,14.80
2023-01-27T20:25:40.173Z,13.35
2023-01-27T20:28:13.892Z,12.63
2023-01-27T20:30:47.337Z,12.65
2023-01-27T20:33:23.116Z,12.35
2023-01-27T20:35:56.714Z,11.88
2023-01-27T20:38:31.022Z,13.27
2023-01-27T20:41:08.156Z,13.52
2023-01-27T20:43:41.648Z,13.45
2023-01-27T20:46:17.649Z,12.93
2023-01-27T20:48:53.953Z,12.18
2023-01-27T20:51:27.429Z,12.07
2023-01-27T20:54:02.733Z,13.90
2023-01-27T20:56:36.459Z,12.75
2023-01-27T20:59:09.831Z,12.10
2023-01-27T21:01:44.711Z,12.43
2023-01-27T21:04:19.925Z,13.10
2023-01-27T21:06:53.360Z,12.00
2023-01-27T21:09:26.804Z,13.27
2023-01-27T21:12:00.351Z,13.57
2023-01-27T21:14:34.197Z,12.57
2023-01-27T21:19:44.949Z,12.05
2023-01-27T21:22:19.060Z,12.77
2023-01-27T21:24:52.732Z,12.10
2023-01-27T21:27:26.147Z,12.27
2023-01-27T21:29:59.774Z,11.48
2023-01-27T21:32:33.143Z,11.77
2023-01-27T21:35:08.905Z,12.05
2023-01-27T21:37:42.749Z,11.32
2023-01-27T21:43:06.968Z,12.18
2023-01-27T21:45:40.336Z,10.98
2023-01-27T21:48:15.018Z,12.15
2023-01-27T21:50:53.734Z,12.52
2023-01-27T21:53:27.272Z,11.68
2023-01-27T21:56:05.980Z,12.30
2023-01-27T21:58:39.516Z,11.25
2023-01-27T22:01:13.347Z,9.80
2023-01-27T22:03:46.910Z,11.82
2023-01-27T22:06:21.912Z,11.23
2023-01-27T22:08:55.479Z,12.35
2023-01-27T22:11:29.531Z,10.82
2023-01-27T22:14:03.031Z,11.43
2023-01-27T22:16:36.446Z,11.55
2023-01-27T22:19:10.024Z,10.57
2023-01-27T22:21:44.871Z,10.23
2023-01-27T22:24:18.572Z,11.07
2023-01-27T22:26:52.168Z,12.50
2023-01-27T22:29:25.569Z,11.50
2023-01-27T22:31:58.941Z,10.98
2023-01-27T22:34:32.677Z,11.10
2023-01-27T22:37:07.408Z,11.27
2023-01-27T22:39:42.212Z,11.40
2023-01-27T22:42:15.473Z,10.80
2023-01-27T22:44:48.880Z,11.73
2023-01-27T22:47:22.336Z,10.68
2023-01-27T22:49:55.657Z,10.02
2023-01-27T22:52:30.434Z,11.43
2023-01-27T22:55:04.234Z,10.82
2023-01-27T23:00:12.055Z,10.40
2023-01-27T23:02:45.730Z,11.90
2023-01-27T23:05:19.249Z,11.18
2023-01-27T23:07:54.066Z,10.90
2023-01-27T23:10:27.431Z,10.77
2023-01-27T23:13:00.873Z,11.07
2023-01-27T23:15:34.635Z,10.00
2023-01-27T23:18:11.346Z,10.00
2023-01-27T23:20:44.984Z,10.32
2023-01-27T23:23:20.583Z,10.57
2023-01-27T23:25:54.039Z,11.05
2023-01-27T23:28:27.850Z,9.60
2023-01-27T23:31:01.494Z,10.10
2023-01-27T23:33:36.710Z,9.82
2023-01-27T23:36:11.874Z,10.32
2023-01-27T23:38:48.751Z,10.88
2023-01-27T23:41:22.919Z,11.07
2023-01-27T23:43:57.681Z,10.27
2023-01-27T23:46:31.127Z,11.32
2023-01-27T23:49:04.449Z,10.88
2023-01-27T23:51:38.469Z,9.65
2023-01-27T23:54:13.314Z,10.23
2023-01-27T23:56:46.891Z,10.52
2023-01-27T23:59:20.243Z,10.48
